CHTM7: Spring River at Carthage, MO

Data processed at Thu May 23 2019 23:50


All information presented herein is the property of the government of the United States of America and may be revised or deleted at any time without prior notice.
Dissemination of this information without the expressed written consent of the Public Affairs Office, Tulsa District U.S. Army Corps of Engineers is strictly prohibited.
These data are gathered electronically and, as presented, have not undergone any form of quality control. These data are not guaranteed to be valid or correct.
Go to home page.
Go to station list.
Go to home page.

Upstream stations:

Downstream station:
Previous Day
Next Day
Current Day
    
SHEF ID:       CHTM7     Spring River at Carthage, MO
STATION TYPE:  

               PRECIP     STAGE  RIV-FLOW
                   in        ft       cfs
              Ccp-Rev   Ccp-Rev   Ccp-Rev
(US/Central)
05/23 00:00      0.01     12.37      9537
05/23 01:00      0.06     12.20      9158
05/23 02:00      0.26     11.98      8699
05/23 03:00      0.02     11.75      8254
05/23 04:00      0.01     11.39      7639
05/23 05:00      1.32     11.37      7606
05/23 06:00      0.54     11.46      7757
05/23 07:00      0.94     12.10      8948
05/23 08:00      0.02     12.40      9607
05/23 09:00      0.00     12.67     10251
05/23 10:00      0.00     12.84     10669
05/23 11:00      0.00     13.06     11226
05/23 12:00      0.00     13.27     11774
05/23 13:00      0.00     14.01     13832
05/23 14:00      0.00     14.81     16287
05/23 15:00      0.00     15.57     18848
05/23 16:00      0.00     16.15     20958
05/23 17:00      0.00     16.64     22847
05/23 18:00      0.00     17.11     24753
05/23 19:00      0.00     17.37     25847
05/23 20:00      0.00     17.66     27102
05/23 21:00      0.00     17.84     27899
05/23 22:00      0.00     17.82     27809
05/23 23:00      ----      ----      ----